Mc Cormack Boys — WDB2090 — position and weather

sailwx.info

Track history (hours):
 
Tides and Currents Weather Stations Pressure Air Temp Water Temp Dewpoint Dewpoint Depression Visibility Wind Speed Wind Dir Waves Ship Positions

Mc Cormack Boys

Owner: Great Lakes Dredge & Dock Company, Oak Brook, IL. More information available from US FCC via Universal Licensing System and Coast Guard Vessel Documentation Center.

Last reported at 2017-Oct-18 22:00 UTC. Time now 2017-Dec-14 00:16 UTC.
Position N 29°32' W 090°51'.
Warning: this ship's position is 56 days out of date.

Length 26 m; draft 0.4 m.

Type: Ship. MMSI: 366872170.

Date/timePositionNaut miles runAvg speedWind from/ knotsBaromVisibWave heightAir tempDewpointWater temp
2017-Oct-18 22:00N 29°32' W 090°51'4 8.7
2017-Oct-18 21:30N 29°32' W 090°46'3 6.7
2017-Oct-18 21:00N 29°34' W 090°43'4 7.0
2017-Oct-18 20:30N 29°31' W 090°43'4 8.1
2017-Oct-18 20:00N 29°27' W 090°43'  
2017-Oct-16 02:44N 29°23' W 090°44'1 5.5
2017-Oct-16 02:29N 29°24' W 090°44'3 5.4
2017-Oct-16 02:00N 29°27' W 090°43'3 5.4
2017-Oct-16 01:30N 29°29' W 090°43'3 5.3
2017-Oct-16 01:00N 29°32' W 090°42'2 3.5
2017-Oct-16 00:30N 29°34' W 090°43'1 2.0
2017-Oct-16 00:00N 29°34' W 090°44'2 4.7
2017-Oct-15 23:30N 29°32' W 090°46'2 4.9
2017-Oct-15 23:00N 29°32' W 090°49'  
2017-Oct-13 15:04N 29°32' W 090°51'1 7.9
2017-Oct-13 14:58N 29°32' W 090°50'4 8.4
2017-Oct-13 14:31N 29°32' W 090°46'3 6.0
2017-Oct-13 14:01N 29°34' W 090°43'3 5.8
2017-Oct-13 13:30N 29°31' W 090°42'4 8.8
2017-Oct-13 13:00N 29°27' W 090°43'  
Track history (hours):
 
Tides and Currents Weather Stations Pressure Air Temp Water Temp Dewpoint Dewpoint Depression Visibility Wind Speed Wind Dir Waves Ship Positions

Mc Cormack Boys

Owner: Great Lakes Dredge & Dock Company, Oak Brook, IL. More information available from US FCC via Universal Licensing System and Coast Guard Vessel Documentation Center.

Last reported at 2017-Oct-18 22:00 UTC. Time now 2017-Dec-14 00:16 UTC.
Position N 29°32' W 090°51'.
Warning: this ship's position is 56 days out of date.

Length 26 m; draft 0.4 m.

Type: Ship. MMSI: 366872170.

Date/timePositionNaut miles runAvg speedWind from/ knotsBaromVisibWave heightAir tempDewpointWater temp
2017-Oct-18 22:00N 29°32' W 090°51'4 8.7
2017-Oct-18 21:30N 29°32' W 090°46'3 6.7
2017-Oct-18 21:00N 29°34' W 090°43'4 7.0
2017-Oct-18 20:30N 29°31' W 090°43'4 8.1
2017-Oct-18 20:00N 29°27' W 090°43'  
2017-Oct-16 02:44N 29°23' W 090°44'1 5.5
2017-Oct-16 02:29N 29°24' W 090°44'3 5.4
2017-Oct-16 02:00N 29°27' W 090°43'3 5.4
2017-Oct-16 01:30N 29°29' W 090°43'3 5.3
2017-Oct-16 01:00N 29°32' W 090°42'2 3.5
2017-Oct-16 00:30N 29°34' W 090°43'1 2.0
2017-Oct-16 00:00N 29°34' W 090°44'2 4.7
2017-Oct-15 23:30N 29°32' W 090°46'2 4.9
2017-Oct-15 23:00N 29°32' W 090°49'  
2017-Oct-13 15:04N 29°32' W 090°51'1 7.9
2017-Oct-13 14:58N 29°32' W 090°50'4 8.4
2017-Oct-13 14:31N 29°32' W 090°46'3 6.0
2017-Oct-13 14:01N 29°34' W 090°43'3 5.8
2017-Oct-13 13:30N 29°31' W 090°42'4 8.8
2017-Oct-13 13:00N 29°27' W 090°43'  

Dump ship's entire track history